createdAt,value
2018-06-24T00:00:10.431Z,100809.69
2018-06-24T00:02:39.223Z,100815.91
2018-06-24T00:05:07.897Z,100813.65
2018-06-24T00:07:36.782Z,100816.70
2018-06-24T00:10:05.546Z,100815.95
2018-06-24T00:12:34.189Z,100814.66
2018-06-24T00:15:02.999Z,100815.07
2018-06-24T00:17:32.344Z,100807.47
2018-06-24T00:20:01.050Z,100812.55
2018-06-24T00:22:29.716Z,100808.81
2018-06-24T00:24:58.661Z,100809.47
2018-06-24T00:27:27.532Z,100806.67
2018-06-24T00:29:56.354Z,100814.59
2018-06-24T00:32:25.068Z,100807.92
2018-06-24T00:34:53.818Z,100804.53
2018-06-24T00:37:22.461Z,100806.98
2018-06-24T00:39:51.109Z,100806.25
2018-06-24T00:42:20.013Z,100803.23
2018-06-24T00:44:48.630Z,100800.22
2018-06-24T00:47:17.349Z,100807.38
2018-06-24T00:49:45.978Z,100813.59
2018-06-24T00:52:14.690Z,100814.56
2018-06-24T00:54:43.411Z,100811.08
2018-06-24T00:57:12.075Z,100822.47
2018-06-24T00:59:51.735Z,100815.59
2018-06-24T01:02:20.416Z,100824.82
2018-06-24T01:04:49.129Z,100838.38
2018-06-24T01:07:17.772Z,100844.13
2018-06-24T01:09:46.429Z,100841.20
2018-06-24T01:12:15.063Z,100843.55
2018-06-24T01:14:43.649Z,100839.34
2018-06-24T01:17:12.341Z,100838.02
2018-06-24T01:19:40.932Z,100842.06
2018-06-24T01:22:09.836Z,100842.53
2018-06-24T01:24:38.426Z,100844.70
2018-06-24T01:27:07.183Z,100851.58
2018-06-24T01:29:35.864Z,100859.66
2018-06-24T01:32:04.484Z,100854.59
2018-06-24T01:34:33.358Z,100852.98
2018-06-24T01:37:02.004Z,100857.13
2018-06-24T01:39:30.647Z,100867.41
2018-06-24T01:41:59.212Z,100883.95
2018-06-24T01:44:27.928Z,100875.58
2018-06-24T01:46:56.691Z,100878.59
2018-06-24T01:49:25.331Z,100888.76
2018-06-24T01:51:53.938Z,100894.41
2018-06-24T01:54:22.667Z,100893.95
2018-06-24T01:56:51.361Z,100900.16
2018-06-24T01:59:20.034Z,100899.77
2018-06-24T02:01:48.712Z,100909.38
2018-06-24T02:04:17.407Z,100919.07
2018-06-24T02:06:46.098Z,100928.30
2018-06-24T02:09:14.778Z,100929.16
2018-06-24T02:11:43.496Z,100934.42
2018-06-24T02:14:12.164Z,100933.78
2018-06-24T02:16:40.855Z,100936.59
2018-06-24T02:19:10.580Z,100933.95
2018-06-24T02:21:39.900Z,100936.88
2018-06-24T02:24:08.699Z,100933.69
2018-06-24T02:26:37.452Z,100939.69
2018-06-24T02:29:06.305Z,100940.66
2018-06-24T02:31:35.341Z,100939.97
2018-06-24T02:34:04.209Z,100947.70
2018-06-24T02:36:32.936Z,100960.69
2018-06-24T02:39:01.542Z,100949.48
2018-06-24T02:41:30.143Z,100951.53
2018-06-24T02:43:58.760Z,100953.98
2018-06-24T02:46:27.475Z,100953.81
2018-06-24T02:48:56.125Z,100808.02
2018-06-24T02:51:24.860Z,100955.59
2018-06-24T02:53:53.526Z,100953.67
2018-06-24T02:56:22.204Z,100953.96
2018-06-24T02:58:50.826Z,100960.25
2018-06-24T03:01:19.481Z,100959.60
2018-06-24T03:03:48.124Z,100959.52
2018-06-24T03:06:16.728Z,100952.61
2018-06-24T03:08:45.344Z,100961.44
2018-06-24T03:11:13.969Z,100952.31
2018-06-24T03:13:42.764Z,100954.73
2018-06-24T03:16:11.502Z,100956.97
2018-06-24T03:18:40.231Z,100949.05
2018-06-24T03:21:09.020Z,100960.65
2018-06-24T03:23:37.666Z,100963.35
2018-06-24T03:26:06.271Z,100966.56
2018-06-24T03:28:35.194Z,100965.81
2018-06-24T03:31:03.937Z,100968.23
2018-06-24T03:33:32.653Z,100972.38
2018-06-24T03:36:01.394Z,100970.37
2018-06-24T03:38:30.097Z,100976.09
2018-06-24T03:40:58.772Z,100974.48
2018-06-24T03:43:27.430Z,100978.70
2018-06-24T03:45:56.118Z,100985.48
2018-06-24T03:48:24.777Z,100987.24
2018-06-24T03:50:53.368Z,100989.41
2018-06-24T03:53:22.052Z,100994.28
2018-06-24T03:55:50.691Z,100997.27
2018-06-24T03:58:19.409Z,101000.06
2018-06-24T04:00:48.064Z,101002.76
2018-06-24T04:03:16.686Z,100996.33
2018-06-24T04:05:45.350Z,101003.19
2018-06-24T04:08:14.012Z,100996.37
2018-06-24T04:10:42.679Z,100998.50
2018-06-24T04:13:11.355Z,100999.16
2018-06-24T04:15:40.038Z,101009.69
2018-06-24T04:18:08.680Z,101017.44
2018-06-24T04:20:37.374Z,101024.74
2018-06-24T04:23:06.104Z,101029.13
2018-06-24T04:25:34.776Z,101028.83
2018-06-24T04:28:03.624Z,101035.12
2018-06-24T04:30:32.231Z,101034.78
2018-06-24T04:33:00.870Z,101031.80
2018-06-24T04:35:29.616Z,101034.58
2018-06-24T04:37:58.225Z,101040.80
2018-06-24T04:40:26.955Z,101043.45
2018-06-24T04:42:55.730Z,101031.81
2018-06-24T04:45:24.371Z,101034.94
2018-06-24T04:47:52.994Z,101038.70
2018-06-24T04:50:21.615Z,101040.23
2018-06-24T04:52:51.219Z,101039.04
2018-06-24T04:55:19.907Z,101040.69
2018-06-24T04:58:51.029Z,101039.92
2018-06-24T05:01:19.825Z,101035.68
2018-06-24T05:03:48.500Z,101039.77
2018-06-24T05:06:17.097Z,101041.83
2018-06-24T05:08:45.760Z,101038.84
2018-06-24T05:11:14.399Z,101040.34
2018-06-24T05:13:43.191Z,101042.24
2018-06-24T05:16:11.927Z,101048.30
2018-06-24T05:18:40.662Z,101048.79
2018-06-24T05:21:09.263Z,101046.31
2018-06-24T05:23:38.059Z,101054.34
2018-06-24T05:26:06.743Z,101053.97
2018-06-24T05:28:35.774Z,101055.89
2018-06-24T05:31:04.356Z,101064.12
2018-06-24T05:33:32.983Z,101058.11
2018-06-24T05:36:01.715Z,101063.19
2018-06-24T05:38:30.409Z,101057.40
2018-06-24T05:40:59.093Z,101063.78
2018-06-24T05:43:27.782Z,101061.83
2018-06-24T05:45:56.507Z,101066.66
2018-06-24T05:48:25.090Z,101065.70
2018-06-24T05:50:53.708Z,101069.09
2018-06-24T05:53:22.379Z,101058.12
2018-06-24T05:55:51.061Z,101062.97
2018-06-24T05:58:19.667Z,101060.19
2018-06-24T06:00:48.423Z,101056.05
2018-06-24T06:03:17.178Z,101054.36
2018-06-24T06:05:45.806Z,101059.69
2018-06-24T06:08:14.433Z,101053.66
2018-06-24T06:10:43.198Z,101058.73
2018-06-24T06:13:11.863Z,101066.93
2018-06-24T06:15:40.448Z,101066.70
2018-06-24T06:18:09.090Z,101073.05
2018-06-24T06:20:37.945Z,101076.44
2018-06-24T06:23:06.573Z,101075.00
2018-06-24T06:25:35.338Z,101075.57
2018-06-24T06:28:03.986Z,101080.66
2018-06-24T06:30:32.588Z,101082.52
2018-06-24T06:33:01.228Z,101075.89
2018-06-24T06:35:29.903Z,101082.83
2018-06-24T06:37:58.538Z,101079.55
2018-06-24T06:40:27.395Z,101074.56
2018-06-24T06:42:56.007Z,101078.89
2018-06-24T06:45:24.673Z,101078.83
2018-06-24T06:47:53.396Z,101089.61
2018-06-24T06:50:22.008Z,101096.48
2018-06-24T06:52:50.613Z,101090.30
2018-06-24T06:55:19.350Z,101093.91
2018-06-24T06:57:48.114Z,101096.25
2018-06-24T07:00:16.834Z,101091.19
2018-06-24T07:02:45.437Z,101098.91
2018-06-24T07:05:14.067Z,101103.86
2018-06-24T07:07:43.016Z,101103.14
2018-06-24T07:10:11.589Z,101106.98
2018-06-24T07:12:40.364Z,101112.66
2018-06-24T07:15:09.275Z,101109.55
2018-06-24T07:17:37.932Z,101107.14
2018-06-24T07:20:06.745Z,101108.45
2018-06-24T07:22:35.845Z,101104.56
2018-06-24T07:25:04.566Z,101091.91
2018-06-24T07:27:33.199Z,101100.45
2018-06-24T07:30:01.893Z,101098.20
2018-06-24T07:32:30.535Z,101101.65
2018-06-24T07:34:59.087Z,101107.23
2018-06-24T07:37:27.660Z,101112.47
2018-06-24T07:39:56.336Z,101106.73
2018-06-24T07:42:24.961Z,101122.39
2018-06-24T07:44:53.673Z,101120.86
2018-06-24T07:47:22.264Z,101119.30
2018-06-24T07:49:50.898Z,101129.06
2018-06-24T07:52:19.513Z,101113.70
2018-06-24T07:54:48.238Z,101125.55
2018-06-24T07:57:16.848Z,101126.20
2018-06-24T07:59:45.730Z,101134.38
2018-06-24T08:02:14.348Z,101135.67
2018-06-24T08:04:43.078Z,101125.66
2018-06-24T08:07:11.959Z,101132.39
2018-06-24T08:09:40.616Z,101137.64
2018-06-24T08:12:09.250Z,101143.95
2018-06-24T08:14:38.017Z,101143.64
2018-06-24T08:17:06.740Z,101141.04
2018-06-24T08:19:35.333Z,101143.97
2018-06-24T08:22:03.997Z,101143.08
2018-06-24T08:24:32.824Z,101135.69
2018-06-24T08:27:01.456Z,101161.53
2018-06-24T08:29:36.412Z,101158.59
2018-06-24T08:32:05.165Z,101146.54
2018-06-24T08:34:34.008Z,101152.16
2018-06-24T08:37:02.594Z,101147.45
2018-06-24T08:39:31.293Z,101155.80
2018-06-24T08:41:59.900Z,101153.88
2018-06-24T08:44:28.492Z,101156.34
2018-06-24T08:46:57.152Z,101152.80
2018-06-24T08:49:25.920Z,101149.35
2018-06-24T08:51:54.522Z,101158.59
2018-06-24T08:54:23.217Z,101146.21
2018-06-24T08:56:51.910Z,101152.02
2018-06-24T08:59:20.504Z,101157.37
2018-06-24T09:01:49.381Z,101153.81
2018-06-24T09:04:18.026Z,101153.84
2018-06-24T09:06:47.467Z,101156.31
2018-06-24T09:09:16.086Z,101164.44
2018-06-24T09:11:44.698Z,101162.44
2018-06-24T09:14:13.365Z,101157.02
2018-06-24T09:16:42.311Z,101162.02
2018-06-24T09:19:11.083Z,101157.72
2018-06-24T09:21:39.704Z,101158.11
2018-06-24T09:24:08.496Z,101154.86
2018-06-24T09:26:37.343Z,101168.67
2018-06-24T09:29:05.988Z,101159.37
2018-06-24T09:31:34.691Z,101165.42
2018-06-24T09:34:03.335Z,101168.14
2018-06-24T09:36:31.970Z,101168.56
2018-06-24T09:39:00.790Z,101169.20
2018-06-24T09:41:29.398Z,101164.16
2018-06-24T09:43:59.168Z,101160.08
2018-06-24T09:46:27.978Z,101152.03
2018-06-24T09:48:56.642Z,101153.53
2018-06-24T09:51:25.404Z,101161.30
2018-06-24T09:53:54.050Z,101160.66
2018-06-24T09:56:22.708Z,101160.56
2018-06-24T09:58:51.352Z,101158.19
2018-06-24T10:01:20.083Z,101153.06
2018-06-24T10:03:48.718Z,101148.38
2018-06-24T10:06:17.310Z,101150.55
2018-06-24T10:08:45.998Z,101154.12
2018-06-24T10:11:14.606Z,101150.92
2018-06-24T10:13:43.242Z,101150.06
2018-06-24T10:16:12.074Z,101148.93
2018-06-24T10:18:40.766Z,101154.12
2018-06-24T10:21:09.406Z,101157.73
2018-06-24T10:23:38.077Z,101157.48
2018-06-24T10:26:06.719Z,101155.81
2018-06-24T10:28:35.330Z,101152.98
2018-06-24T10:31:04.059Z,101153.06
2018-06-24T10:33:32.778Z,101147.83
2018-06-24T10:36:01.648Z,101149.32
2018-06-24T10:38:30.385Z,101150.33
2018-06-24T10:40:58.986Z,101148.60
2018-06-24T10:43:27.577Z,101150.24
2018-06-24T10:45:56.205Z,101147.94
2018-06-24T10:48:24.804Z,101144.95
2018-06-24T10:50:53.453Z,101146.46
2018-06-24T10:53:22.067Z,101145.61
2018-06-24T10:55:50.704Z,101144.75
2018-06-24T10:58:19.425Z,101147.08
2018-06-24T11:00:48.184Z,101145.44
2018-06-24T11:03:16.772Z,101140.08
2018-06-24T11:05:45.603Z,101146.80
2018-06-24T11:08:14.283Z,101141.91
2018-06-24T11:10:43.084Z,101142.23
2018-06-24T11:13:11.679Z,101139.36
2018-06-24T11:15:40.379Z,101139.22
2018-06-24T11:18:09.409Z,101142.49
2018-06-24T11:20:38.475Z,101135.76
2018-06-24T11:23:07.086Z,101134.59
2018-06-24T11:25:35.677Z,101128.58
2018-06-24T11:28:04.411Z,101132.52
2018-06-24T11:30:33.105Z,101132.78
2018-06-24T11:33:01.702Z,101123.44
2018-06-24T11:35:30.283Z,101122.38
2018-06-24T11:37:58.901Z,101128.55
2018-06-24T11:40:27.503Z,101113.12
2018-06-24T11:42:56.145Z,101116.68
2018-06-24T11:45:24.796Z,101112.83
2018-06-24T11:47:54.125Z,101112.30
2018-06-24T11:50:22.775Z,101101.52
2018-06-24T11:52:51.411Z,101107.09
2018-06-24T11:55:20.072Z,101102.94
2018-06-24T11:57:49.020Z,101104.30
2018-06-24T12:00:17.585Z,101103.54
2018-06-24T12:02:46.348Z,101101.37
2018-06-24T12:05:14.990Z,101105.81
2018-06-24T12:07:43.631Z,101108.13
2018-06-24T12:10:12.228Z,101106.58
2018-06-24T12:12:40.797Z,101103.12
2018-06-24T12:15:09.456Z,101104.64
2018-06-24T12:17:38.201Z,101101.30
2018-06-24T12:20:06.917Z,101104.94
2018-06-24T12:22:35.561Z,101109.27
2018-06-24T12:25:04.453Z,101105.27
2018-06-24T12:27:33.289Z,101109.28
2018-06-24T12:30:02.021Z,101106.41
2018-06-24T12:32:30.667Z,101111.77
2018-06-24T12:34:59.317Z,101105.16
2018-06-24T12:37:27.968Z,101112.78
2018-06-24T12:39:56.574Z,101113.00
2018-06-24T12:42:25.251Z,101115.45
2018-06-24T12:44:53.938Z,101110.69
2018-06-24T12:47:22.529Z,101114.42
2018-06-24T12:49:51.303Z,101114.28
2018-06-24T12:52:20.045Z,101108.87
2018-06-24T12:54:48.783Z,101106.76
2018-06-24T12:57:17.410Z,101111.91
2018-06-24T12:59:46.525Z,101102.09
2018-06-24T13:02:14.876Z,101102.47
2018-06-24T13:04:43.552Z,101102.13
2018-06-24T13:07:12.193Z,101110.58
2018-06-24T13:09:40.789Z,101105.36
2018-06-24T13:12:09.529Z,101104.80
2018-06-24T13:14:38.305Z,101113.75
2018-06-24T13:17:06.936Z,101111.65
2018-06-24T13:19:36.304Z,101117.02
2018-06-24T13:22:04.909Z,101106.09
2018-06-24T13:24:33.527Z,101112.25
2018-06-24T13:27:02.204Z,101110.37
2018-06-24T13:29:30.886Z,101107.60
2018-06-24T13:31:59.550Z,101105.47
2018-06-24T13:34:28.343Z,101113.20
2018-06-24T13:36:57.212Z,101106.77
2018-06-24T13:39:25.886Z,101115.05
2018-06-24T13:41:54.618Z,101113.38
2018-06-24T13:44:23.312Z,101113.20
2018-06-24T13:46:52.092Z,101114.12
2018-06-24T13:49:20.788Z,101107.45
2018-06-24T13:51:49.947Z,101105.53
2018-06-24T13:54:18.578Z,101103.21
2018-06-24T13:56:47.275Z,101103.66
2018-06-24T13:59:15.890Z,101106.08
2018-06-24T14:01:44.599Z,101100.09
2018-06-24T14:04:14.193Z,101102.05
2018-06-24T14:06:42.867Z,101105.80
2018-06-24T14:09:12.855Z,101109.18
2018-06-24T14:11:41.744Z,101103.35
2018-06-24T14:14:10.947Z,101105.30
2018-06-24T14:16:39.684Z,101107.77
2018-06-24T14:19:08.418Z,101108.85
2018-06-24T14:21:37.109Z,101115.70
2018-06-24T14:24:05.807Z,101112.99
2018-06-24T14:26:34.443Z,101106.73
2018-06-24T14:29:03.417Z,101096.08
2018-06-24T14:31:32.027Z,101096.83
2018-06-24T14:34:00.606Z,101099.32
2018-06-24T14:36:29.315Z,101097.83
2018-06-24T14:38:57.984Z,101103.00
2018-06-24T14:41:26.586Z,101099.48
2018-06-24T14:43:55.256Z,101092.84
2018-06-24T14:46:24.028Z,101103.25
2018-06-24T14:48:52.741Z,101103.19
2018-06-24T14:51:21.653Z,101096.64
2018-06-24T14:53:50.432Z,101097.75
2018-06-24T14:56:19.050Z,101096.59
2018-06-24T14:58:47.734Z,101096.83
2018-06-24T15:01:16.353Z,101093.68
2018-06-24T15:03:45.072Z,101099.86
2018-06-24T15:06:13.655Z,101094.84
2018-06-24T15:08:42.298Z,101095.66
2018-06-24T15:11:10.992Z,101089.46
2018-06-24T15:13:39.642Z,101090.75
2018-06-24T15:16:08.811Z,101079.42
2018-06-24T15:18:37.436Z,101087.21
2018-06-24T15:21:06.152Z,101090.96
2018-06-24T15:23:34.832Z,101087.62
2018-06-24T15:26:03.544Z,101100.50
2018-06-24T15:28:32.279Z,101094.26
2018-06-24T15:31:00.931Z,101090.87
2018-06-24T15:33:29.610Z,101096.56
2018-06-24T15:35:58.176Z,101093.20
2018-06-24T15:38:26.862Z,101094.98
2018-06-24T15:40:55.453Z,101086.36
2018-06-24T15:45:51.939Z,101100.25
2018-06-24T15:48:20.602Z,101100.08
2018-06-24T15:50:49.344Z,101085.70
2018-06-24T15:53:17.989Z,101092.06
2018-06-24T15:55:46.733Z,101101.45
2018-06-24T15:58:15.420Z,101095.63
2018-06-24T16:00:44.106Z,101094.79
2018-06-24T16:03:12.818Z,101098.36
2018-06-24T16:05:41.994Z,101105.45
2018-06-24T16:08:11.397Z,101108.22
2018-06-24T16:10:40.227Z,101114.95
2018-06-24T16:13:08.863Z,101106.61
2018-06-24T16:15:37.564Z,101106.78
2018-06-24T16:18:06.276Z,101120.03
2018-06-24T16:20:34.970Z,101102.58
2018-06-24T16:23:03.752Z,101115.67
2018-06-24T16:25:32.397Z,101118.48
2018-06-24T16:28:01.085Z,101114.56
2018-06-24T16:30:29.715Z,101110.88
2018-06-24T16:32:58.319Z,101114.25
2018-06-24T16:35:26.986Z,101114.06
2018-06-24T16:37:55.710Z,101111.61
2018-06-24T16:40:24.437Z,101109.86
2018-06-24T16:42:53.160Z,101111.04
2018-06-24T16:45:22.108Z,101121.75
2018-06-24T16:47:50.843Z,101120.91
2018-06-24T16:50:19.450Z,101119.47
2018-06-24T16:52:48.114Z,101118.08
2018-06-24T16:55:16.698Z,101126.13
2018-06-24T16:57:45.392Z,101123.14
2018-06-24T17:00:14.006Z,101129.81
2018-06-24T17:02:42.934Z,101128.13
2018-06-24T17:05:11.541Z,101134.80
2018-06-24T17:07:40.128Z,101128.20
2018-06-24T17:10:08.792Z,101130.61
2018-06-24T17:12:37.610Z,101127.02
2018-06-24T17:15:06.256Z,101122.55
2018-06-24T17:17:34.939Z,101124.78
2018-06-24T17:20:03.627Z,101135.34
2018-06-24T17:22:32.299Z,101133.50
2018-06-24T17:25:01.006Z,101133.42
2018-06-24T17:27:29.698Z,101131.23
2018-06-24T17:29:58.549Z,101135.66
2018-06-24T17:32:27.390Z,101133.92
2018-06-24T17:34:56.163Z,101133.75
2018-06-24T17:37:24.852Z,101126.14
2018-06-24T17:39:53.469Z,101131.72
2018-06-24T17:42:22.231Z,101131.02
2018-06-24T17:44:51.053Z,101127.88
2018-06-24T17:47:19.826Z,101133.05
2018-06-24T17:49:48.577Z,101131.98
2018-06-24T17:52:17.350Z,101138.56
2018-06-24T17:54:46.036Z,101135.91
2018-06-24T17:57:14.667Z,101139.38
2018-06-24T17:59:43.416Z,101130.49
2018-06-24T18:02:12.055Z,101125.56
2018-06-24T18:04:40.836Z,101123.93
2018-06-24T18:07:09.407Z,101126.20
2018-06-24T18:09:38.100Z,101127.67
2018-06-24T18:12:07.211Z,101133.64
2018-06-24T18:14:35.897Z,101135.83
2018-06-24T18:17:04.752Z,101135.63
2018-06-24T18:19:39.931Z,101134.84
2018-06-24T18:22:08.861Z,101143.45
2018-06-24T18:24:37.785Z,101141.80
2018-06-24T18:27:06.893Z,101138.95
2018-06-24T18:29:36.335Z,101137.11
2018-06-24T18:32:05.066Z,101138.73
2018-06-24T18:34:33.813Z,101143.75
2018-06-24T18:37:02.479Z,101142.17
2018-06-24T18:39:31.267Z,101138.30
2018-06-24T18:42:00.060Z,101135.77
2018-06-24T18:44:28.707Z,101138.59
2018-06-24T18:46:57.496Z,101134.08
2018-06-24T18:49:26.315Z,101142.16
2018-06-24T18:51:55.087Z,101145.19
2018-06-24T18:54:23.725Z,101139.22
2018-06-24T18:56:52.547Z,101137.36
2018-06-24T18:59:21.168Z,101137.64
2018-06-24T19:01:49.914Z,101132.69
2018-06-24T19:04:18.915Z,101136.17
2018-06-24T19:06:47.638Z,101139.03
2018-06-24T19:09:16.268Z,101131.64
2018-06-24T19:11:44.987Z,101130.37
2018-06-24T19:14:13.578Z,101136.00
2018-06-24T19:16:43.455Z,101138.29
2018-06-24T19:19:12.117Z,101145.85
2018-06-24T19:21:40.835Z,101144.12
2018-06-24T19:24:09.500Z,101144.22
2018-06-24T19:26:38.198Z,101147.27
2018-06-24T19:29:06.781Z,101138.05
2018-06-24T19:31:35.335Z,101144.62
2018-06-24T19:34:04.019Z,101147.60
2018-06-24T19:36:32.724Z,101149.00
2018-06-24T19:39:01.330Z,101148.24
2018-06-24T19:41:29.990Z,101148.79
2018-06-24T19:43:58.652Z,101148.61
2018-06-24T19:46:27.351Z,101149.95
2018-06-24T19:48:56.213Z,101150.30
2018-06-24T19:51:24.895Z,101150.33
2018-06-24T19:53:53.642Z,101148.06
2018-06-24T19:56:22.333Z,101146.58
2018-06-24T19:58:51.065Z,101144.61
2018-06-24T20:01:19.833Z,101146.86
2018-06-24T20:03:48.497Z,101143.29
2018-06-24T20:06:17.265Z,101143.82
2018-06-24T20:08:45.945Z,101148.87
2018-06-24T20:11:14.641Z,101142.56
2018-06-24T20:13:43.331Z,101144.88
2018-06-24T20:16:11.986Z,101148.75
2018-06-24T20:18:40.911Z,101146.11
2018-06-24T20:21:09.506Z,101144.84
2018-06-24T20:23:38.195Z,101150.73
2018-06-24T20:26:06.865Z,101144.61
2018-06-24T20:28:36.387Z,101145.41
2018-06-24T20:31:05.697Z,101143.53
2018-06-24T20:33:34.313Z,101141.41
2018-06-24T20:36:02.922Z,101143.05
2018-06-24T20:38:31.645Z,101140.20
2018-06-24T20:41:00.331Z,101140.12
2018-06-24T20:43:28.955Z,101145.14
2018-06-24T20:45:57.565Z,101146.52
2018-06-24T20:48:26.193Z,101145.69
2018-06-24T20:50:54.883Z,101154.83
2018-06-24T20:53:23.616Z,101155.10
2018-06-24T20:55:53.162Z,101151.67
2018-06-24T20:58:21.985Z,101150.62
2018-06-24T21:00:50.549Z,101149.67
2018-06-24T21:03:19.182Z,101149.95
2018-06-24T21:05:47.916Z,101147.65
2018-06-24T21:08:16.593Z,101155.44
2018-06-24T21:10:45.571Z,101151.48
2018-06-24T21:13:14.236Z,101154.17
2018-06-24T21:15:43.036Z,101153.96
2018-06-24T21:18:11.805Z,101161.02
2018-06-24T21:20:40.614Z,101158.83
2018-06-24T21:23:09.409Z,101163.19
2018-06-24T21:25:37.993Z,101158.01
2018-06-24T21:28:06.590Z,101159.73
2018-06-24T21:30:35.238Z,101160.94
2018-06-24T21:33:03.938Z,101160.48
2018-06-24T21:35:32.583Z,101165.91
2018-06-24T21:38:01.321Z,101167.53
2018-06-24T21:40:29.931Z,101169.81
2018-06-24T21:42:58.509Z,101167.30
2018-06-24T21:45:27.156Z,101164.28
2018-06-24T21:47:55.819Z,101169.50
2018-06-24T21:50:24.531Z,101172.74
2018-06-24T21:52:53.252Z,101159.20
2018-06-24T21:55:21.862Z,101163.93
2018-06-24T21:57:50.488Z,101165.61
2018-06-24T22:00:19.139Z,101163.70
2018-06-24T22:02:47.806Z,101170.47
2018-06-24T22:05:16.351Z,101167.78
2018-06-24T22:07:44.918Z,101160.08
2018-06-24T22:10:13.652Z,101161.74
2018-06-24T22:12:42.244Z,101156.06
2018-06-24T22:15:10.906Z,101158.47
2018-06-24T22:17:39.553Z,101152.08
2018-06-24T22:20:08.200Z,101156.52
2018-06-24T22:22:36.727Z,101155.92
2018-06-24T22:25:05.390Z,101150.83
2018-06-24T22:27:33.980Z,101147.32
2018-06-24T22:30:02.695Z,101144.66
2018-06-24T22:32:31.272Z,101143.76
2018-06-24T22:34:59.900Z,101148.96
2018-06-24T22:37:28.525Z,101149.28
2018-06-24T22:39:57.132Z,101161.09
2018-06-24T22:42:25.958Z,101169.13
2018-06-24T22:44:54.804Z,101158.24
2018-06-24T22:47:23.438Z,101147.72
2018-06-24T22:49:52.474Z,101154.69
2018-06-24T22:52:21.056Z,101149.13
2018-06-24T22:54:49.649Z,101152.50
2018-06-24T22:57:18.277Z,101144.36
2018-06-24T22:59:57.904Z,101152.53
2018-06-24T23:02:26.568Z,101156.48
2018-06-24T23:04:55.182Z,101149.29
2018-06-24T23:07:23.930Z,101147.91
2018-06-24T23:09:52.726Z,101144.41
2018-06-24T23:12:21.314Z,101150.56
2018-06-24T23:14:49.922Z,101160.36
2018-06-24T23:17:18.605Z,101160.83
2018-06-24T23:19:47.162Z,101155.27
2018-06-24T23:22:15.794Z,101159.00
2018-06-24T23:24:44.374Z,101152.44
2018-06-24T23:27:12.979Z,101155.02
2018-06-24T23:29:41.863Z,101154.52
2018-06-24T23:32:10.461Z,101158.48
2018-06-24T23:34:39.107Z,101162.32
2018-06-24T23:37:07.660Z,101159.36
2018-06-24T23:39:36.384Z,101158.23
2018-06-24T23:42:04.968Z,101151.98
2018-06-24T23:44:33.594Z,101149.39
2018-06-24T23:47:02.176Z,101148.64
2018-06-24T23:49:31.164Z,101141.70
2018-06-24T23:51:59.731Z,101138.23
2018-06-24T23:54:28.467Z,101137.98
2018-06-24T23:56:57.196Z,101132.22
2018-06-24T23:59:26.021Z,101136.77
